sensor_id;sensor_type;location;lat;lon;timestamp;pressure;altitude;pressure_sealevel;temperature;humidity
59106;BME280;44891;50.204;8.132;2023-03-16T00:02:58;98618.03;;;-0.26;84.73
59106;BME280;44891;50.204;8.132;2023-03-16T00:07:00;98612.38;;;-0.30;85.22
59106;BME280;44891;50.204;8.132;2023-03-16T00:11:03;98608.97;;;-0.38;85.50
59106;BME280;44891;50.204;8.132;2023-03-16T00:15:05;98603.78;;;-0.46;85.48
59106;BME280;44891;50.204;8.132;2023-03-16T00:19:07;98594.41;;;-0.56;86.37
59106;BME280;44891;50.204;8.132;2023-03-16T00:23:09;98601.94;;;-0.78;87.04
59106;BME280;44891;50.204;8.132;2023-03-16T00:27:13;98580.31;;;-0.86;88.77
59106;BME280;44891;50.204;8.132;2023-03-16T00:31:15;98577.44;;;-0.74;88.05
59106;BME280;44891;50.204;8.132;2023-03-16T00:35:17;98590.34;;;-0.66;87.86
59106;BME280;44891;50.204;8.132;2023-03-16T00:39:18;98583.41;;;-0.74;88.04
59106;BME280;44891;50.204;8.132;2023-03-16T00:43:22;98597.94;;;-0.65;87.21
59106;BME280;44891;50.204;8.132;2023-03-16T00:47:27;98606.69;;;-0.49;86.49
59106;BME280;44891;50.204;8.132;2023-03-16T00:51:29;98596.00;;;-0.71;86.02
59106;BME280;44891;50.204;8.132;2023-03-16T00:55:33;98603.00;;;-0.97;87.41
59106;BME280;44891;50.204;8.132;2023-03-16T00:59:36;98603.72;;;-0.71;86.74
59106;BME280;44891;50.204;8.132;2023-03-16T01:03:39;98609.69;;;-0.78;87.25
59106;BME280;44891;50.204;8.132;2023-03-16T01:07:41;98602.16;;;-0.56;86.26
59106;BME280;44891;50.204;8.132;2023-03-16T01:11:44;98605.63;;;-0.81;87.14
59106;BME280;44891;50.204;8.132;2023-03-16T01:15:50;98595.03;;;-0.70;87.01
59106;BME280;44891;50.204;8.132;2023-03-16T01:19:53;98595.66;;;-0.68;86.69
59106;BME280;44891;50.204;8.132;2023-03-16T01:23:55;98588.09;;;-0.61;86.40
59106;BME280;44891;50.204;8.132;2023-03-16T01:27:57;98589.22;;;-0.72;87.97
59106;BME280;44891;50.204;8.132;2023-03-16T01:32:00;98577.25;;;-0.81;87.98
59106;BME280;44891;50.204;8.132;2023-03-16T01:36:04;98577.16;;;-0.55;87.62
59106;BME280;44891;50.204;8.132;2023-03-16T01:40:15;98563.19;;;-0.95;88.95
59106;BME280;44891;50.204;8.132;2023-03-16T01:44:18;98551.34;;;-0.71;87.68
59106;BME280;44891;50.204;8.132;2023-03-16T01:48:23;98552.81;;;-0.61;86.00
59106;BME280;44891;50.204;8.132;2023-03-16T01:52:27;98544.88;;;-0.84;87.91
59106;BME280;44891;50.204;8.132;2023-03-16T01:56:34;98548.88;;;-0.81;88.05
59106;BME280;44891;50.204;8.132;2023-03-16T02:00:38;98546.50;;;-0.66;87.68
59106;BME280;44891;50.204;8.132;2023-03-16T02:04:51;98560.88;;;-0.64;87.36
59106;BME280;44891;50.204;8.132;2023-03-16T02:08:56;98561.00;;;-0.73;87.46
59106;BME280;44891;50.204;8.132;2023-03-16T02:12:58;98559.53;;;-0.76;88.19
59106;BME280;44891;50.204;8.132;2023-03-16T02:17:00;98547.97;;;-0.64;87.18
59106;BME280;44891;50.204;8.132;2023-03-16T02:21:05;98530.25;;;-0.59;86.71
59106;BME280;44891;50.204;8.132;2023-03-16T02:25:10;98521.56;;;-0.49;86.28
59106;BME280;44891;50.204;8.132;2023-03-16T02:29:17;98515.41;;;-0.65;86.91
59106;BME280;44891;50.204;8.132;2023-03-16T02:33:26;98505.41;;;-0.60;87.93
59106;BME280;44891;50.204;8.132;2023-03-16T02:37:29;98507.38;;;-0.45;87.97
59106;BME280;44891;50.204;8.132;2023-03-16T02:41:33;98508.50;;;-0.48;88.24
59106;BME280;44891;50.204;8.132;2023-03-16T02:45:35;98495.94;;;-0.51;89.88
59106;BME280;44891;50.204;8.132;2023-03-16T02:49:41;98497.06;;;-0.45;88.67
59106;BME280;44891;50.204;8.132;2023-03-16T02:53:44;98494.63;;;-0.55;88.96
59106;BME280;44891;50.204;8.132;2023-03-16T02:57:47;98497.84;;;-0.53;89.80
59106;BME280;44891;50.204;8.132;2023-03-16T03:01:50;98493.34;;;-0.43;89.76
59106;BME280;44891;50.204;8.132;2023-03-16T03:05:54;98496.41;;;-0.47;90.00
59106;BME280;44891;50.204;8.132;2023-03-16T03:09:56;98495.44;;;-0.55;90.59
59106;BME280;44891;50.204;8.132;2023-03-16T03:13:58;98497.66;;;-0.68;91.53
59106;BME280;44891;50.204;8.132;2023-03-16T03:18:01;98491.22;;;-0.64;91.27
59106;BME280;44891;50.204;8.132;2023-03-16T03:22:06;98493.00;;;-0.64;91.24
59106;BME280;44891;50.204;8.132;2023-03-16T03:26:08;98492.19;;;-0.08;96.81
59106;BME280;44891;50.204;8.132;2023-03-16T03:30:11;98490.50;;;0.32;97.04
59106;BME280;44891;50.204;8.132;2023-03-16T03:34:13;98487.03;;;0.56;95.79
59106;BME280;44891;50.204;8.132;2023-03-16T03:38:16;98483.91;;;0.69;94.12
59106;BME280;44891;50.204;8.132;2023-03-16T03:42:19;98493.91;;;0.72;92.65
59106;BME280;44891;50.204;8.132;2023-03-16T03:46:23;98491.63;;;0.77;92.60
59106;BME280;44891;50.204;8.132;2023-03-16T03:50:25;98484.81;;;0.84;91.76
59106;BME280;44891;50.204;8.132;2023-03-16T03:54:52;98480.19;;;0.71;91.79
59106;BME280;44891;50.204;8.132;2023-03-16T03:58:54;98484.19;;;0.82;91.33
59106;BME280;44891;50.204;8.132;2023-03-16T04:03:22;98485.88;;;0.67;90.59
59106;BME280;44891;50.204;8.132;2023-03-16T04:07:24;98482.69;;;0.57;90.67
59106;BME280;44891;50.204;8.132;2023-03-16T04:11:31;98483.16;;;0.52;91.03
59106;BME280;44891;50.204;8.132;2023-03-16T04:15:33;98481.75;;;0.49;91.45
59106;BME280;44891;50.204;8.132;2023-03-16T04:19:45;98468.75;;;0.66;91.12
59106;BME280;44891;50.204;8.132;2023-03-16T04:23:50;98465.66;;;0.70;89.52
59106;BME280;44891;50.204;8.132;2023-03-16T04:27:55;98466.59;;;0.38;89.49
59106;BME280;44891;50.204;8.132;2023-03-16T04:32:01;98466.47;;;0.23;90.88
59106;BME280;44891;50.204;8.132;2023-03-16T04:36:05;98476.66;;;0.17;91.67
59106;BME280;44891;50.204;8.132;2023-03-16T04:40:11;98472.97;;;0.03;92.30
59106;BME280;44891;50.204;8.132;2023-03-16T04:44:19;98470.28;;;-0.12;94.56
59106;BME280;44891;50.204;8.132;2023-03-16T04:48:23;98463.75;;;0.17;94.18
59106;BME280;44891;50.204;8.132;2023-03-16T04:52:25;98461.00;;;0.26;91.62
59106;BME280;44891;50.204;8.132;2023-03-16T04:56:28;98460.88;;;0.04;93.18
59106;BME280;44891;50.204;8.132;2023-03-16T05:00:36;98467.13;;;0.17;92.08
59106;BME280;44891;50.204;8.132;2023-03-16T05:04:43;98459.88;;;0.13;91.72
59106;BME280;44891;50.204;8.132;2023-03-16T05:08:46;98449.38;;;0.22;91.11
59106;BME280;44891;50.204;8.132;2023-03-16T05:12:48;98440.06;;;0.13;91.82
59106;BME280;44891;50.204;8.132;2023-03-16T05:16:51;98435.56;;;0.07;91.63
59106;BME280;44891;50.204;8.132;2023-03-16T05:20:55;98433.09;;;0.06;92.98
59106;BME280;44891;50.204;8.132;2023-03-16T05:25:02;98424.09;;;0.02;93.01
59106;BME280;44891;50.204;8.132;2023-03-16T05:29:05;98424.09;;;-0.07;93.99
59106;BME280;44891;50.204;8.132;2023-03-16T05:33:08;98421.69;;;0.00;93.85
59106;BME280;44891;50.204;8.132;2023-03-16T05:37:10;98420.72;;;0.01;94.43
59106;BME280;44891;50.204;8.132;2023-03-16T05:41:12;98408.44;;;0.03;94.08
59106;BME280;44891;50.204;8.132;2023-03-16T05:45:29;98411.09;;;0.26;93.13
59106;BME280;44891;50.204;8.132;2023-03-16T05:49:43;98412.28;;;0.15;92.75
59106;BME280;44891;50.204;8.132;2023-03-16T05:53:55;98411.25;;;0.24;92.60
59106;BME280;44891;50.204;8.132;2023-03-16T05:58:05;98407.91;;;0.16;92.38
59106;BME280;44891;50.204;8.132;2023-03-16T06:02:09;98413.75;;;0.10;92.48
59106;BME280;44891;50.204;8.132;2023-03-16T06:06:13;98412.13;;;0.09;93.09
59106;BME280;44891;50.204;8.132;2023-03-16T06:10:26;98416.81;;;0.13;92.75
59106;BME280;44891;50.204;8.132;2023-03-16T06:14:28;98421.47;;;0.57;90.69
59106;BME280;44891;50.204;8.132;2023-03-16T06:18:30;98412.78;;;1.04;87.54
59106;BME280;44891;50.204;8.132;2023-03-16T06:22:34;98419.91;;;1.25;86.64
59106;BME280;44891;50.204;8.132;2023-03-16T06:26:36;98416.16;;;1.50;84.93
59106;BME280;44891;50.204;8.132;2023-03-16T06:30:40;98426.63;;;1.72;82.67
59106;BME280;44891;50.204;8.132;2023-03-16T06:34:42;98419.00;;;1.93;81.42
59106;BME280;44891;50.204;8.132;2023-03-16T06:38:46;98421.59;;;2.08;80.85
59106;BME280;44891;50.204;8.132;2023-03-16T06:43:00;98425.59;;;2.10;79.85
59106;BME280;44891;50.204;8.132;2023-03-16T06:47:03;98430.72;;;2.18;80.19
59106;BME280;44891;50.204;8.132;2023-03-16T06:51:05;98434.34;;;2.24;79.82
59106;BME280;44891;50.204;8.132;2023-03-16T06:55:10;98432.41;;;2.26;77.98
59106;BME280;44891;50.204;8.132;2023-03-16T06:59:17;98432.59;;;2.25;77.87
59106;BME280;44891;50.204;8.132;2023-03-16T07:03:19;98433.22;;;2.27;78.18
59106;BME280;44891;50.204;8.132;2023-03-16T07:07:27;98438.38;;;2.27;78.30
59106;BME280;44891;50.204;8.132;2023-03-16T07:11:30;98430.91;;;2.32;77.92
59106;BME280;44891;50.204;8.132;2023-03-16T07:15:33;98430.00;;;2.39;76.80
59106;BME280;44891;50.204;8.132;2023-03-16T07:19:35;98435.59;;;2.43;76.62
59106;BME280;44891;50.204;8.132;2023-03-16T07:23:38;98434.53;;;2.52;76.22
59106;BME280;44891;50.204;8.132;2023-03-16T07:27:43;98439.97;;;2.57;76.25
59106;BME280;44891;50.204;8.132;2023-03-16T07:31:50;98435.22;;;2.61;76.74
59106;BME280;44891;50.204;8.132;2023-03-16T07:35:56;98443.34;;;2.72;75.70
59106;BME280;44891;50.204;8.132;2023-03-16T07:39:58;98437.38;;;2.72;75.73
59106;BME280;44891;50.204;8.132;2023-03-16T07:44:01;98430.88;;;2.83;76.18
59106;BME280;44891;50.204;8.132;2023-03-16T07:48:03;98431.66;;;2.98;75.87
59106;BME280;44891;50.204;8.132;2023-03-16T07:52:21;98429.19;;;3.11;74.80
59106;BME280;44891;50.204;8.132;2023-03-16T07:56:25;98433.94;;;3.29;74.54
59106;BME280;44891;50.204;8.132;2023-03-16T08:00:32;98427.06;;;3.43;73.58
59106;BME280;44891;50.204;8.132;2023-03-16T08:04:34;98420.72;;;3.73;74.53
59106;BME280;44891;50.204;8.132;2023-03-16T08:08:37;98418.03;;;3.88;72.77
59106;BME280;44891;50.204;8.132;2023-03-16T08:12:40;98411.97;;;4.09;72.13
59106;BME280;44891;50.204;8.132;2023-03-16T08:16:43;98410.28;;;4.29;72.12
59106;BME280;44891;50.204;8.132;2023-03-16T08:20:45;98413.03;;;4.62;71.20
59106;BME280;44891;50.204;8.132;2023-03-16T08:24:47;98416.03;;;4.66;70.37
59106;BME280;44891;50.204;8.132;2023-03-16T08:28:51;98417.13;;;4.91;70.84
59106;BME280;44891;50.204;8.132;2023-03-16T08:32:55;98415.16;;;5.20;69.96
59106;BME280;44891;50.204;8.132;2023-03-16T08:36:58;98410.56;;;5.22;68.99
59106;BME280;44891;50.204;8.132;2023-03-16T08:41:01;98399.56;;;5.46;67.57
59106;BME280;44891;50.204;8.132;2023-03-16T08:45:03;98409.38;;;5.58;67.75
59106;BME280;44891;50.204;8.132;2023-03-16T08:49:11;98408.97;;;5.61;67.32
59106;BME280;44891;50.204;8.132;2023-03-16T08:53:14;98410.59;;;5.68;67.46
59106;BME280;44891;50.204;8.132;2023-03-16T08:57:16;98412.19;;;5.43;67.83
59106;BME280;44891;50.204;8.132;2023-03-16T09:01:18;98402.38;;;5.38;67.37
59106;BME280;44891;50.204;8.132;2023-03-16T09:05:22;98404.38;;;5.30;68.77
59106;BME280;44891;50.204;8.132;2023-03-16T09:09:25;98401.97;;;5.35;67.62
59106;BME280;44891;50.204;8.132;2023-03-16T09:13:27;98408.34;;;5.26;68.59
59106;BME280;44891;50.204;8.132;2023-03-16T09:17:29;98410.16;;;5.32;69.06
59106;BME280;44891;50.204;8.132;2023-03-16T09:21:32;98405.75;;;5.32;69.12
59106;BME280;44891;50.204;8.132;2023-03-16T09:25:34;98394.34;;;5.33;67.88
59106;BME280;44891;50.204;8.132;2023-03-16T09:29:36;98407.56;;;5.25;68.66
59106;BME280;44891;50.204;8.132;2023-03-16T09:33:38;98408.13;;;5.07;69.34
59106;BME280;44891;50.204;8.132;2023-03-16T09:37:41;98402.34;;;5.25;69.36
59106;BME280;44891;50.204;8.132;2023-03-16T09:41:44;98414.56;;;5.31;68.15
59106;BME280;44891;50.204;8.132;2023-03-16T09:45:51;98429.63;;;5.49;68.77
59106;BME280;44891;50.204;8.132;2023-03-16T09:49:57;98408.97;;;5.61;67.85
59106;BME280;44891;50.204;8.132;2023-03-16T09:54:02;98417.59;;;6.01;67.94
59106;BME280;44891;50.204;8.132;2023-03-16T09:58:09;98417.97;;;6.11;66.97
59106;BME280;44891;50.204;8.132;2023-03-16T10:02:22;98412.50;;;6.26;66.62
59106;BME280;44891;50.204;8.132;2023-03-16T10:06:29;98409.81;;;6.52;65.56
59106;BME280;44891;50.204;8.132;2023-03-16T10:10:37;98415.75;;;6.73;64.22
59106;BME280;44891;50.204;8.132;2023-03-16T10:14:44;98411.28;;;7.18;64.60
59106;BME280;44891;50.204;8.132;2023-03-16T10:18:49;98401.75;;;7.30;63.21
59106;BME280;44891;50.204;8.132;2023-03-16T10:22:52;98408.53;;;7.63;61.67
59106;BME280;44891;50.204;8.132;2023-03-16T10:26:56;98398.03;;;7.70;61.01
59106;BME280;44891;50.204;8.132;2023-03-16T10:31:00;98391.47;;;8.04;60.89
59106;BME280;44891;50.204;8.132;2023-03-16T10:35:04;98393.59;;;8.13;59.67
59106;BME280;44891;50.204;8.132;2023-03-16T10:39:12;98410.00;;;8.21;57.89
59106;BME280;44891;50.204;8.132;2023-03-16T10:43:17;98400.56;;;8.56;57.87
59106;BME280;44891;50.204;8.132;2023-03-16T10:47:21;98398.06;;;9.21;57.34
59106;BME280;44891;50.204;8.132;2023-03-16T10:51:24;98392.09;;;9.56;55.74
59106;BME280;44891;50.204;8.132;2023-03-16T10:55:27;98399.72;;;9.46;55.77
59106;BME280;44891;50.204;8.132;2023-03-16T10:59:33;98399.72;;;9.46;55.67
59106;BME280;44891;50.204;8.132;2023-03-16T11:03:37;98392.00;;;9.98;54.53
59106;BME280;44891;50.204;8.132;2023-03-16T11:07:45;98384.13;;;9.98;54.88
59106;BME280;44891;50.204;8.132;2023-03-16T11:11:48;98394.97;;;9.13;56.97
59106;BME280;44891;50.204;8.132;2023-03-16T11:15:52;98384.59;;;9.06;56.27
59106;BME280;44891;50.204;8.132;2023-03-16T11:19:57;98381.28;;;8.69;57.67
59106;BME280;44891;50.204;8.132;2023-03-16T11:24:01;98380.47;;;8.32;58.09
59106;BME280;44891;50.204;8.132;2023-03-16T11:28:05;98368.22;;;8.32;58.58
59106;BME280;44891;50.204;8.132;2023-03-16T11:32:15;98369.59;;;8.35;58.32
59106;BME280;44891;50.204;8.132;2023-03-16T11:36:24;98367.56;;;8.55;58.81
59106;BME280;44891;50.204;8.132;2023-03-16T11:40:33;98362.75;;;8.34;58.83
59106;BME280;44891;50.204;8.132;2023-03-16T11:44:40;98355.28;;;8.86;58.42
59106;BME280;44891;50.204;8.132;2023-03-16T11:48:47;98333.25;;;9.99;54.87
59106;BME280;44891;50.204;8.132;2023-03-16T11:52:54;98320.03;;;13.22;47.87
59106;BME280;44891;50.204;8.132;2023-03-16T11:57:02;98326.00;;;13.92;44.26
59106;BME280;44891;50.204;8.132;2023-03-16T12:01:10;98336.97;;;13.04;46.00
59106;BME280;44891;50.204;8.132;2023-03-16T12:05:21;98334.34;;;11.67;48.25
59106;BME280;44891;50.204;8.132;2023-03-16T12:09:32;98334.50;;;12.92;45.22
59106;BME280;44891;50.204;8.132;2023-03-16T12:13:47;98329.97;;;12.61;45.62
59106;BME280;44891;50.204;8.132;2023-03-16T12:17:50;98319.34;;;17.90;37.11
59106;BME280;44891;50.204;8.132;2023-03-16T12:22:00;98302.81;;;19.12;33.42
59106;BME280;44891;50.204;8.132;2023-03-16T12:26:03;98312.28;;;14.78;40.45
59106;BME280;44891;50.204;8.132;2023-03-16T12:30:11;98299.13;;;14.00;42.10
59106;BME280;44891;50.204;8.132;2023-03-16T12:34:22;98289.63;;;14.09;42.83
59106;BME280;44891;50.204;8.132;2023-03-16T12:42:51;98277.66;;;13.01;43.08
59106;BME280;44891;50.204;8.132;2023-03-16T12:46:57;98272.13;;;13.40;44.27
59106;BME280;44891;50.204;8.132;2023-03-16T12:51:03;98273.22;;;12.75;44.80
59106;BME280;44891;50.204;8.132;2023-03-16T12:55:06;98270.28;;;12.44;45.04
59106;BME280;44891;50.204;8.132;2023-03-16T12:59:14;98256.53;;;16.94;37.58
59106;BME280;44891;50.204;8.132;2023-03-16T13:03:19;98243.19;;;18.42;34.78
59106;BME280;44891;50.204;8.132;2023-03-16T13:07:22;98244.63;;;19.05;32.87
59106;BME280;44891;50.204;8.132;2023-03-16T13:11:25;98240.25;;;20.10;31.62
59106;BME280;44891;50.204;8.132;2023-03-16T13:15:28;98199.28;;;18.96;31.74
59106;BME280;44891;50.204;8.132;2023-03-16T13:19:31;98230.78;;;17.76;33.85
59106;BME280;44891;50.204;8.132;2023-03-16T13:23:51;98227.72;;;18.82;33.00
59106;BME280;44891;50.204;8.132;2023-03-16T13:27:55;98229.16;;;19.21;32.14
59106;BME280;44891;50.204;8.132;2023-03-16T13:31:59;98236.19;;;18.09;31.86
59106;BME280;44891;50.204;8.132;2023-03-16T13:36:03;98235.50;;;15.69;36.67
59106;BME280;44891;50.204;8.132;2023-03-16T13:40:15;98233.50;;;14.64;38.96
59106;BME280;44891;50.204;8.132;2023-03-16T13:44:18;98218.94;;;13.16;40.70
59106;BME280;44891;50.204;8.132;2023-03-16T13:48:24;98219.28;;;12.02;43.35
59106;BME280;44891;50.204;8.132;2023-03-16T13:52:29;98211.19;;;11.64;43.92
59106;BME280;44891;50.204;8.132;2023-03-16T13:56:31;98196.03;;;11.50;45.53
59106;BME280;44891;50.204;8.132;2023-03-16T14:00:34;98192.47;;;11.61;46.19
59106;BME280;44891;50.204;8.132;2023-03-16T14:04:38;98181.16;;;12.04;45.24
59106;BME280;44891;50.204;8.132;2023-03-16T14:08:40;98162.88;;;12.19;45.48
59106;BME280;44891;50.204;8.132;2023-03-16T14:12:50;98172.41;;;11.33;46.59
59106;BME280;44891;50.204;8.132;2023-03-16T14:16:52;98174.66;;;11.24;46.94
59106;BME280;44891;50.204;8.132;2023-03-16T14:20:56;98171.13;;;12.28;44.98
59106;BME280;44891;50.204;8.132;2023-03-16T14:24:58;98164.59;;;13.57;42.50
59106;BME280;44891;50.204;8.132;2023-03-16T14:29:01;98150.41;;;13.84;41.87
59106;BME280;44891;50.204;8.132;2023-03-16T14:33:05;98159.50;;;14.54;40.60
59106;BME280;44891;50.204;8.132;2023-03-16T14:37:32;98138.59;;;14.37;41.03
59106;BME280;44891;50.204;8.132;2023-03-16T14:41:35;98132.91;;;13.52;41.05
59106;BME280;44891;50.204;8.132;2023-03-16T14:45:37;98137.00;;;14.87;38.64
59106;BME280;44891;50.204;8.132;2023-03-16T14:49:41;98130.13;;;15.71;36.53
59106;BME280;44891;50.204;8.132;2023-03-16T14:53:44;98125.97;;;16.04;35.86
59106;BME280;44891;50.204;8.132;2023-03-16T14:57:46;98130.66;;;14.37;38.76
59106;BME280;44891;50.204;8.132;2023-03-16T15:01:49;98136.16;;;13.85;40.58
59106;BME280;44891;50.204;8.132;2023-03-16T15:05:52;98132.09;;;13.52;40.76
59106;BME280;44891;50.204;8.132;2023-03-16T15:09:56;98112.69;;;13.94;39.76
59106;BME280;44891;50.204;8.132;2023-03-16T15:14:03;98117.00;;;13.32;41.21
59106;BME280;44891;50.204;8.132;2023-03-16T15:18:34;98117.78;;;12.85;41.36
59106;BME280;44891;50.204;8.132;2023-03-16T15:22:37;98110.66;;;12.11;43.40
59106;BME280;44891;50.204;8.132;2023-03-16T15:26:41;98100.94;;;11.36;45.04
59106;BME280;44891;50.204;8.132;2023-03-16T15:30:44;98052.88;;;10.75;46.89
59106;BME280;44891;50.204;8.132;2023-03-16T15:34:46;98100.91;;;10.92;46.76
59106;BME280;44891;50.204;8.132;2023-03-16T15:38:49;98087.16;;;10.85;47.27
59106;BME280;44891;50.204;8.132;2023-03-16T15:42:53;98084.56;;;10.68;47.37
59106;BME280;44891;50.204;8.132;2023-03-16T15:46:55;98079.09;;;10.53;48.56
59106;BME280;44891;50.204;8.132;2023-03-16T15:50:57;98073.44;;;10.61;47.40
59106;BME280;44891;50.204;8.132;2023-03-16T15:55:00;98081.72;;;10.36;45.74
59106;BME280;44891;50.204;8.132;2023-03-16T15:59:11;98079.91;;;10.37;46.85
59106;BME280;44891;50.204;8.132;2023-03-16T16:03:16;98081.09;;;10.29;46.25
59106;BME280;44891;50.204;8.132;2023-03-16T16:07:18;98078.47;;;10.29;46.32
59106;BME280;44891;50.204;8.132;2023-03-16T16:11:21;98070.97;;;10.04;46.52
59106;BME280;44891;50.204;8.132;2023-03-16T16:15:26;98072.28;;;9.90;47.17
59106;BME280;44891;50.204;8.132;2023-03-16T16:19:28;98055.59;;;9.79;47.63
59106;BME280;44891;50.204;8.132;2023-03-16T16:23:33;98040.03;;;9.89;47.92
59106;BME280;44891;50.204;8.132;2023-03-16T16:27:36;98049.88;;;9.82;48.22
59106;BME280;44891;50.204;8.132;2023-03-16T16:31:39;98049.47;;;9.73;49.06
59106;BME280;44891;50.204;8.132;2023-03-16T16:35:41;98048.75;;;9.61;48.61
59106;BME280;44891;50.204;8.132;2023-03-16T16:39:44;98060.41;;;9.53;49.13
59106;BME280;44891;50.204;8.132;2023-03-16T16:43:46;98054.38;;;9.53;49.41
59106;BME280;44891;50.204;8.132;2023-03-16T16:47:50;98047.44;;;9.47;49.77
59106;BME280;44891;50.204;8.132;2023-03-16T16:51:52;98059.66;;;9.41;49.59
59106;BME280;44891;50.204;8.132;2023-03-16T16:55:55;98055.09;;;9.37;50.05
59106;BME280;44891;50.204;8.132;2023-03-16T16:59:57;98047.06;;;9.26;50.79
59106;BME280;44891;50.204;8.132;2023-03-16T17:04:00;98047.56;;;9.12;51.50
59106;BME280;44891;50.204;8.132;2023-03-16T17:08:03;98041.75;;;9.10;51.79
59106;BME280;44891;50.204;8.132;2023-03-16T17:12:05;98038.22;;;9.04;51.93
59106;BME280;44891;50.204;8.132;2023-03-16T17:16:07;98040.66;;;8.94;51.80
59106;BME280;44891;50.204;8.132;2023-03-16T17:20:17;98029.97;;;8.84;52.50
59106;BME280;44891;50.204;8.132;2023-03-16T17:24:20;98028.16;;;8.84;52.96
59106;BME280;44891;50.204;8.132;2023-03-16T17:28:23;98035.25;;;8.72;53.18
59106;BME280;44891;50.204;8.132;2023-03-16T17:32:26;98033.19;;;8.62;53.95
59106;BME280;44891;50.204;8.132;2023-03-16T17:36:29;98033.78;;;8.53;54.36
59106;BME280;44891;50.204;8.132;2023-03-16T17:40:31;98034.59;;;8.41;56.07
59106;BME280;44891;50.204;8.132;2023-03-16T17:44:33;98022.66;;;8.46;55.10
59106;BME280;44891;50.204;8.132;2023-03-16T17:48:36;98027.16;;;8.50;54.75
59106;BME280;44891;50.204;8.132;2023-03-16T17:52:39;98026.06;;;8.46;55.02
59106;BME280;44891;50.204;8.132;2023-03-16T17:56:41;98009.78;;;8.32;55.53
59106;BME280;44891;50.204;8.132;2023-03-16T18:00:43;98004.97;;;8.29;55.81
59106;BME280;44891;50.204;8.132;2023-03-16T18:04:48;98007.03;;;8.27;55.96
59106;BME280;44891;50.204;8.132;2023-03-16T18:08:51;98013.50;;;8.25;56.20
59106;BME280;44891;50.204;8.132;2023-03-16T18:12:57;98008.97;;;8.20;56.56
59106;BME280;44891;50.204;8.132;2023-03-16T18:17:00;98003.63;;;8.15;57.26
59106;BME280;44891;50.204;8.132;2023-03-16T18:21:02;98006.91;;;8.10;57.91
59106;BME280;44891;50.204;8.132;2023-03-16T18:25:08;98007.81;;;8.04;57.67
59106;BME280;44891;50.204;8.132;2023-03-16T18:29:20;98009.16;;;8.18;56.71
59106;BME280;44891;50.204;8.132;2023-03-16T18:33:23;98007.59;;;8.29;56.88
59106;BME280;44891;50.204;8.132;2023-03-16T18:37:27;98007.81;;;8.28;57.02
59106;BME280;44891;50.204;8.132;2023-03-16T18:41:30;98003.50;;;8.22;57.56
59106;BME280;44891;50.204;8.132;2023-03-16T18:45:33;98011.69;;;8.13;58.46
59106;BME280;44891;50.204;8.132;2023-03-16T18:49:35;98006.09;;;7.98;59.20
59106;BME280;44891;50.204;8.132;2023-03-16T18:53:37;98013.16;;;7.98;59.50
59106;BME280;44891;50.204;8.132;2023-03-16T18:57:40;98003.94;;;7.95;60.39
59106;BME280;44891;50.204;8.132;2023-03-16T19:01:42;97998.34;;;7.91;61.51
59106;BME280;44891;50.204;8.132;2023-03-16T19:05:45;98001.88;;;7.85;62.50
59106;BME280;44891;50.204;8.132;2023-03-16T19:09:47;98001.28;;;7.72;63.66
59106;BME280;44891;50.204;8.132;2023-03-16T19:13:50;97996.31;;;7.82;63.47
59106;BME280;44891;50.204;8.132;2023-03-16T19:17:52;98001.19;;;7.67;64.32
59106;BME280;44891;50.204;8.132;2023-03-16T19:21:55;98005.94;;;7.70;64.55
59106;BME280;44891;50.204;8.132;2023-03-16T19:25:57;98004.13;;;7.70;64.79
59106;BME280;44891;50.204;8.132;2023-03-16T19:30:00;98000.03;;;7.62;65.44
59106;BME280;44891;50.204;8.132;2023-03-16T19:34:03;98004.22;;;7.63;66.08
59106;BME280;44891;50.204;8.132;2023-03-16T19:38:05;98010.22;;;7.52;66.05
59106;BME280;44891;50.204;8.132;2023-03-16T19:42:07;98003.56;;;7.68;65.38
59106;BME280;44891;50.204;8.132;2023-03-16T19:46:16;98000.03;;;7.62;65.53
59106;BME280;44891;50.204;8.132;2023-03-16T19:50:19;98002.28;;;7.59;65.81
59106;BME280;44891;50.204;8.132;2023-03-16T19:54:22;97985.97;;;7.33;68.17
59106;BME280;44891;50.204;8.132;2023-03-16T19:58:26;97984.03;;;7.29;68.30
59106;BME280;44891;50.204;8.132;2023-03-16T20:02:33;97989.44;;;7.16;67.44
59106;BME280;44891;50.204;8.132;2023-03-16T20:06:36;97991.81;;;7.17;67.32
59106;BME280;44891;50.204;8.132;2023-03-16T20:10:38;97982.25;;;7.11;67.80
59106;BME280;44891;50.204;8.132;2023-03-16T20:14:40;97989.47;;;6.97;67.75
59106;BME280;44891;50.204;8.132;2023-03-16T20:18:43;97982.09;;;7.06;67.58
59106;BME280;44891;50.204;8.132;2023-03-16T20:22:46;97978.69;;;6.94;68.27
59106;BME280;44891;50.204;8.132;2023-03-16T20:26:48;97990.19;;;6.86;68.41
59106;BME280;44891;50.204;8.132;2023-03-16T20:30:51;97984.41;;;6.84;68.45
59106;BME280;44891;50.204;8.132;2023-03-16T20:34:54;97973.66;;;6.92;67.56
59106;BME280;44891;50.204;8.132;2023-03-16T20:38:57;97969.75;;;6.83;67.68
59106;BME280;44891;50.204;8.132;2023-03-16T20:42:59;97968.19;;;6.82;67.89
59106;BME280;44891;50.204;8.132;2023-03-16T20:47:01;97950.63;;;6.71;68.18
59106;BME280;44891;50.204;8.132;2023-03-16T20:51:04;97956.16;;;6.63;68.38
59106;BME280;44891;50.204;8.132;2023-03-16T20:55:08;97954.59;;;6.73;67.79
59106;BME280;44891;50.204;8.132;2023-03-16T20:59:13;97960.81;;;6.61;69.00
59106;BME280;44891;50.204;8.132;2023-03-16T21:03:18;97958.63;;;6.58;68.67
59106;BME280;44891;50.204;8.132;2023-03-16T21:07:23;97962.47;;;6.37;69.21
59106;BME280;44891;50.204;8.132;2023-03-16T21:11:26;97960.00;;;6.23;69.82
59106;BME280;44891;50.204;8.132;2023-03-16T21:15:30;97947.31;;;6.09;70.38
59106;BME280;44891;50.204;8.132;2023-03-16T21:19:32;97939.09;;;6.05;70.39
59106;BME280;44891;50.204;8.132;2023-03-16T21:23:36;97934.47;;;6.07;70.12
59106;BME280;44891;50.204;8.132;2023-03-16T21:27:37;97930.78;;;5.96;71.13
59106;BME280;44891;50.204;8.132;2023-03-16T21:31:39;97930.13;;;5.76;71.68
59106;BME280;44891;50.204;8.132;2023-03-16T21:35:41;97922.53;;;5.75;73.07
59106;BME280;44891;50.204;8.132;2023-03-16T21:39:44;97926.41;;;5.65;72.67
59106;BME280;44891;50.204;8.132;2023-03-16T21:43:47;97918.97;;;5.69;72.27
59106;BME280;44891;50.204;8.132;2023-03-16T21:47:50;97925.09;;;5.56;73.37
59106;BME280;44891;50.204;8.132;2023-03-16T21:51:52;97919.44;;;5.59;72.95